Back to Top

Language: 

My Weather Underground Personal Weather Station Historical Data with Graphs...

Delerius Weather Station Historical Data
Daily Summary for September 9, 2017 Units:  Metric    English   Both
« Previous Day
Next Day »
Daily Weekly Monthly Yearly Custom
  High: Low: Average:
Temperature: 16.8 °C 8.9 °C 12.4 °C
Dew Point: 13.4 °C 8.2 °C 10.7 °C
Humidity: 95 % 74 % 90 %
Wind Speed: 17.7 km/h 0 km/h 6.3 km/h
Wind Gust: 33.8 km/h - -
Wind:- - West
Pressure: 1000.9 hPa 992.4 hPa -
Precipitation: 4.32 mm    
Historical Graphs
 
 
Tabular Data for September 9, 2017
Time Temperature Dew Point Pressure Wind Wind Speed Wind Gust Humidity Rainfall Rate (Hourly) solar Conditions
00:03 11.8 °C 9.9 °C 993.8 hPa West 9.7 km/h 16.1 km/h 88 % 0 mm 0 W/m2
00:08 11.8 °C 9.9 °C 993.8 hPa West 8 km/h 16.1 km/h 88 % 0 mm 0 W/m2
00:13 11.8 °C 9.9 °C 993.8 hPa West 6.4 km/h 12.9 km/h 88 % 0 mm 0 W/m2
00:18 11.8 °C 9.9 °C 993.8 hPa West 8 km/h 12.9 km/h 88 % 0 mm 0 W/m2
00:23 11.8 °C 9.9 °C 993.8 hPa WNW 6.4 km/h 11.3 km/h 88 % 0 mm 0 W/m2
00:28 11.8 °C 9.9 °C 993.8 hPa WNW 6.4 km/h 11.3 km/h 88 % 0 mm 0 W/m2
00:33 11.8 °C 9.9 °C 993.8 hPa WNW 6.4 km/h 11.3 km/h 88 % 0 mm 0 W/m2
00:38 11.8 °C 10.1 °C 993.5 hPa WNW 4.8 km/h 11.3 km/h 89 % 0 mm 0 W/m2
00:43 11.8 °C 9.9 °C 993.5 hPa WNW 6.4 km/h 11.3 km/h 88 % 0 mm 0 W/m2
00:48 11.8 °C 9.9 °C 993.8 hPa WNW 8 km/h 16.1 km/h 88 % 0 mm 0 W/m2
00:53 11.8 °C 10.1 °C 993.5 hPa West 9.7 km/h 16.1 km/h 89 % 0 mm 0 W/m2
00:58 11.9 °C 10.2 °C 993.5 hPa West 8 km/h 14.5 km/h 89 % 0 mm 0 W/m2
01:03 11.8 °C 10.1 °C 993.5 hPa West 8 km/h 14.5 km/h 89 % 0 mm 0 W/m2
01:08 11.8 °C 10.2 °C 993.5 hPa West 8 km/h 14.5 km/h 90 % 0 mm 0 W/m2
01:13 11.8 °C 10.2 °C 993.5 hPa WSW 4.8 km/h 11.3 km/h 90 % 0 mm 0 W/m2
01:18 11.7 °C 10.1 °C 993.5 hPa WSW 3.2 km/h 9.7 km/h 90 % 0 mm 0 W/m2
01:23 11.7 °C 10.1 °C 993.5 hPa West 3.2 km/h 12.9 km/h 90 % 0 mm 0 W/m2
01:28 11.6 °C 10 °C 993.5 hPa West 6.4 km/h 17.7 km/h 90 % 0 mm 0 W/m2
01:33 11.5 °C 9.9 °C 993.5 hPa West 8 km/h 17.7 km/h 90 % 0 mm 0 W/m2
01:38 11.4 °C 9.8 °C 993.5 hPa West 8 km/h 14.5 km/h 90 % 0 mm 0 W/m2
01:43 11.3 °C 9.7 °C 993.5 hPa West 6.4 km/h 11.3 km/h 90 % 0 mm 0 W/m2
01:48 11.3 °C 9.7 °C 993.5 hPa West 6.4 km/h 11.3 km/h 90 % 0 mm 0 W/m2
01:53 11.2 °C 9.6 °C 993.1 hPa West 6.4 km/h 11.3 km/h 90 % 0 mm 0 W/m2
01:58 11.1 °C 9.5 °C 993.1 hPa West 6.4 km/h 11.3 km/h 90 % 0 mm 0 W/m2
02:03 11.1 °C 9.5 °C 993.1 hPa West 4.8 km/h 9.7 km/h 90 % 0 mm 0 W/m2
02:08 11 °C 9.4 °C 993.1 hPa West 4.8 km/h 9.7 km/h 90 % 0 mm 0 W/m2
02:13 11 °C 9.6 °C 993.1 hPa West 6.4 km/h 11.3 km/h 91 % 0 mm 0 W/m2
02:18 10.9 °C 9.5 °C 993.1 hPa West 8 km/h 12.9 km/h 91 % 0 mm 0 W/m2
02:23 10.9 °C 9.5 °C 993.1 hPa West 8 km/h 12.9 km/h 91 % 0 mm 0 W/m2
02:28 10.9 °C 9.5 °C 993.1 hPa West 6.4 km/h 12.9 km/h 91 % 0 mm 0 W/m2
02:33 10.8 °C 9.4 °C 993.1 hPa WSW 6.4 km/h 12.9 km/h 91 % 0 mm 0 W/m2
02:38 10.8 °C 9.4 °C 993.1 hPa West 4.8 km/h 11.3 km/h 91 % 0 mm 0 W/m2
02:43 10.7 °C 9.3 °C 993.1 hPa West 3.2 km/h 11.3 km/h 91 % 0 mm 0 W/m2
02:48 10.6 °C 9 °C 993.1 hPa Calm   3.2 km/h 90 % 0 mm 0 W/m2
02:53 10.4 °C 8.8 °C 993.1 hPa Calm   3.2 km/h 90 % 0 mm 0 W/m2
02:58 10.3 °C 8.7 °C 993.1 hPa West 1.6 km/h 8 km/h 90 % 0 mm 0 W/m2
03:03 10.2 °C 8.8 °C 993.1 hPa West 3.2 km/h 9.7 km/h 91 % 0 mm 0 W/m2
03:08 10.2 °C 8.8 °C 993.1 hPa West 6.4 km/h 12.9 km/h 91 % 0 mm 0 W/m2
03:13 10.2 °C 8.9 °C 993.1 hPa West 8 km/h 12.9 km/h 92 % 0 mm 0 W/m2
03:18 10.3 °C 9.1 °C 993.1 hPa West 9.7 km/h 16.1 km/h 92 % 0 mm 0 W/m2
03:23 10.5 °C 9.3 °C 993.1 hPa West 9.7 km/h 16.1 km/h 92 % 0 mm 0 W/m2
03:28 10.6 °C 9.3 °C 993.1 hPa West 9.7 km/h 16.1 km/h 92 % 0 mm 0 W/m2
03:33 10.7 °C 9.4 °C 993.1 hPa West 11.3 km/h 19.3 km/h 92 % 0 mm 0 W/m2
03:38 10.8 °C 9.6 °C 993.1 hPa West 9.7 km/h 19.3 km/h 92 % 0 mm 0 W/m2
03:43 10.9 °C 9.5 °C 993.1 hPa West 8 km/h 17.7 km/h 91 % 0 mm 0 W/m2
03:48 10.9 °C 9.5 °C 993.1 hPa West 8 km/h 14.5 km/h 91 % 0 mm 0 W/m2
03:53 11 °C 9.6 °C 993.1 hPa West 9.7 km/h 14.5 km/h 91 % 0 mm 0 W/m2
03:59 11.1 °C 9.7 °C 993.1 hPa West 8 km/h 14.5 km/h 91 % 0.25 mm 0 W/m2
04:04 11.1 °C 9.7 °C 992.8 hPa WSW 6.4 km/h 12.9 km/h 91 % 0.25 mm 0 W/m2
04:09 11.1 °C 9.7 °C 992.8 hPa WSW 6.4 km/h 12.9 km/h 91 % 0.25 mm 0 W/m2
04:14 11.2 °C 9.8 °C 993.1 hPa WSW 6.4 km/h 12.9 km/h 91 % 0.25 mm 0 W/m2
04:19 11.1 °C 9.7 °C 992.8 hPa West 4.8 km/h 9.7 km/h 91 % 0.25 mm 0 W/m2
04:21 11.1 °C 9.7 °C 992.8 hPa West 4.8 km/h 9.7 km/h 91 % 0.25 mm 0 W/m2
04:23 11.1 °C 9.7 °C 992.8 hPa West 4.8 km/h 9.7 km/h 91 % 0.25 mm 0 W/m2
04:28 11.1 °C 9.7 °C 992.8 hPa West 6.4 km/h 11.3 km/h 91 % 0.25 mm 0 W/m2
04:33 11.1 °C 9.7 °C 992.8 hPa West 6.4 km/h 11.3 km/h 91 % 0.25 mm 0 W/m2
04:38 11 °C 9.7 °C 992.8 hPa West 4.8 km/h 12.9 km/h 92 % 0.25 mm 0 W/m2
04:39 11 °C 9.7 °C 992.8 hPa West 4.8 km/h 12.9 km/h 92 % 0.25 mm 0 W/m2
04:44 11 °C 9.7 °C 992.8 hPa West 4.8 km/h 12.9 km/h 92 % 0.25 mm 0 W/m2
04:49 11 °C 9.7 °C 992.8 hPa West 4.8 km/h 11.3 km/h 92 % 0.25 mm 0 W/m2
04:54 11 °C 9.7 °C 992.8 hPa West 4.8 km/h 12.9 km/h 92 % 0.25 mm 0 W/m2
04:59 11 °C 9.7 °C 992.8 hPa West 3.2 km/h 12.9 km/h 92 % 0 mm 0 W/m2
05:04 11 °C 9.7 °C 992.8 hPa West 1.6 km/h 8 km/h 92 % 0 mm 0 W/m2
05:09 11 °C 9.7 °C 992.8 hPa West 3.2 km/h 9.7 km/h 92 % 0 mm 0 W/m2
05:14 11 °C 9.7 °C 992.8 hPa West 3.2 km/h 11.3 km/h 92 % 0 mm 0 W/m2
05:19 11.1 °C 9.8 °C 992.8 hPa West 3.2 km/h 11.3 km/h 92 % 0 mm 0 W/m2
05:24 11.1 °C 9.8 °C 992.8 hPa West 3.2 km/h 9.7 km/h 92 % 0 mm 0 W/m2
05:29 11 °C 9.7 °C 992.8 hPa West 3.2 km/h 9.7 km/h 92 % 0 mm 0 W/m2
05:34 11.1 °C 9.8 °C 992.8 hPa West 3.2 km/h 16.1 km/h 92 % 0 mm 0 W/m2
05:39 11.1 °C 9.8 °C 992.8 hPa West 6.4 km/h 16.1 km/h 92 % 0 mm 0 W/m2
05:44 11.1 °C 9.8 °C 992.8 hPa West 9.7 km/h 16.1 km/h 92 % 0 mm 0 W/m2
05:49 11.2 °C 9.9 °C 992.8 hPa West 9.7 km/h 16.1 km/h 92 % 0 mm 0 W/m2
05:54 11.2 °C 9.9 °C 992.8 hPa West 9.7 km/h 16.1 km/h 92 % 0 mm 0 W/m2
05:59 11.2 °C 9.9 °C 992.4 hPa West 9.7 km/h 16.1 km/h 92 % 0 mm 0 W/m2
06:04 11.3 °C 10.1 °C 992.8 hPa West 8 km/h 16.1 km/h 92 % 0 mm 0 W/m2
06:09 11.3 °C 10.1 °C 992.8 hPa West 8 km/h 16.1 km/h 92 % 0 mm 0 W/m2
06:14 11.3 °C 10.1 °C 992.8 hPa West 9.7 km/h 16.1 km/h 92 % 0.25 mm 0 W/m2
06:19 11.3 °C 10.1 °C 992.8 hPa West 8 km/h 12.9 km/h 92 % 0.51 mm 0 W/m2
06:24 11.3 °C 10.1 °C 992.8 hPa West 8 km/h 12.9 km/h 92 % 0.51 mm 0 W/m2
06:29 11.3 °C 10.1 °C 992.8 hPa West 9.7 km/h 14.5 km/h 92 % 0.76 mm 0 W/m2
06:34 11.3 °C 10.2 °C 992.8 hPa West 8 km/h 14.5 km/h 93 % 0.76 mm 0 W/m2
06:39 11.3 °C 10.2 °C 992.8 hPa West 6.4 km/h 12.9 km/h 93 % 0.76 mm 0 W/m2
06:44 11.2 °C 10.1 °C 992.8 hPa West 6.4 km/h 14.5 km/h 93 % 0.76 mm 0 W/m2
06:49 11.2 °C 10.1 °C 992.8 hPa West 6.4 km/h 14.5 km/h 93 % 1.27 mm 0 W/m2
06:54 11.2 °C 10.1 °C 992.8 hPa West 6.4 km/h 11.3 km/h 93 % 1.52 mm 7 W/m2
06:59 11.2 °C 10.1 °C 992.8 hPa WSW 6.4 km/h 11.3 km/h 93 % 1.52 mm 9 W/m2
07:04 11.2 °C 10.1 °C 992.8 hPa WSW 4.8 km/h 12.9 km/h 93 % 1.52 mm 11 W/m2
07:09 11.2 °C 10.1 °C 992.8 hPa West 6.4 km/h 12.9 km/h 93 % 1.52 mm 14 W/m2
07:14 11.2 °C 10.3 °C 992.8 hPa West 6.4 km/h 12.9 km/h 94 % 1.52 mm 16 W/m2
07:19 11.2 °C 10.3 °C 992.8 hPa West 4.8 km/h 11.3 km/h 94 % 1.27 mm 19 W/m2
07:24 11.2 °C 10.3 °C 992.8 hPa West 6.4 km/h 14.5 km/h 94 % 1.02 mm 19 W/m2
07:29 11.2 °C 10.3 °C 992.8 hPa West 8 km/h 14.5 km/h 94 % 0.76 mm 21 W/m2
07:34 11.2 °C 10.3 °C 992.8 hPa West 6.4 km/h 11.3 km/h 94 % 1.02 mm 18 W/m2
07:39 11.2 °C 10.3 °C 993.1 hPa WSW 6.4 km/h 9.7 km/h 94 % 1.02 mm 16 W/m2
07:44 11.2 °C 10.3 °C 992.8 hPa WSW 4.8 km/h 9.7 km/h 94 % 1.27 mm 18 W/m2
07:49 11.2 °C 10.3 °C 992.8 hPa WSW 3.2 km/h 8 km/h 94 % 1.02 mm 14 W/m2
07:54 11.2 °C 10.3 °C 992.8 hPa WSW 3.2 km/h 8 km/h 94 % 0.76 mm 16 W/m2
07:59 11.2 °C 10.3 °C 992.8 hPa WSW 3.2 km/h 8 km/h 94 % 0.76 mm 21 W/m2
08:04 11.2 °C 10.3 °C 993.1 hPa WSW 1.6 km/h 6.4 km/h 94 % 0.51 mm 33 W/m2
08:09 11.2 °C 10.3 °C 993.1 hPa WSW 3.2 km/h 9.7 km/h 94 % 0.51 mm 44 W/m2
08:14 11.1 °C 10.2 °C 993.1 hPa WSW 4.8 km/h 9.7 km/h 94 % 0.51 mm 51 W/m2
08:19 11.2 °C 10.4 °C 992.8 hPa WSW 3.2 km/h 8 km/h 95 % 0.51 mm 63 W/m2
08:25 11.2 °C 10.4 °C 992.8 hPa WSW 1.6 km/h 9.7 km/h 95 % 0.51 mm 76 W/m2
08:30 11.2 °C 10.4 °C 993.1 hPa WSW 3.2 km/h 12.9 km/h 95 % 0.51 mm 74 W/m2
08:35 11.2 °C 10.4 °C 993.1 hPa WSW 6.4 km/h 16.1 km/h 95 % 0.51 mm 88 W/m2
08:40 11.3 °C 10.6 °C 993.1 hPa WSW 9.7 km/h 16.1 km/h 95 % 0.25 mm 84 W/m2
08:45 11.3 °C 10.4 °C 993.1 hPa WSW 9.7 km/h 20.9 km/h 94 % 0.25 mm 118 W/m2
08:50 11.4 °C 10.6 °C 993.1 hPa WSW 9.7 km/h 20.9 km/h 95 % 0 mm 230 W/m2
08:55 11.6 °C 10.7 °C 993.1 hPa WSW 8 km/h 16.1 km/h 94 % 0 mm 229 W/m2
09:00 11.7 °C 10.9 °C 993.1 hPa WSW 6.4 km/h 16.1 km/h 95 % 0.25 mm 105 W/m2
09:05 11.8 °C 10.9 °C 993.1 hPa WSW 6.4 km/h 11.3 km/h 94 % 0.25 mm 86 W/m2
09:10 11.8 °C 10.9 °C 993.1 hPa WSW 6.4 km/h 11.3 km/h 94 % 0.25 mm 104 W/m2
09:15 11.7 °C 10.8 °C 993.1 hPa WSW 8 km/h 12.9 km/h 94 % 0.25 mm 162 W/m2
09:20 11.8 °C 10.9 °C 993.1 hPa WSW 8 km/h 12.9 km/h 94 % 0.25 mm 204 W/m2
09:25 11.9 °C 10.9 °C 993.1 hPa WSW 6.4 km/h 11.3 km/h 94 % 0.25 mm 236 W/m2
09:30 12.1 °C 11.3 °C 993.1 hPa WSW 4.8 km/h 12.9 km/h 95 % 0.25 mm 246 W/m2
09:35 12.3 °C 11.5 °C 993.1 hPa WSW 4.8 km/h 12.9 km/h 95 % 0.51 mm 229 W/m2
09:40 12.4 °C 11.4 °C 993.1 hPa WSW 6.4 km/h 12.9 km/h 94 % 0.51 mm 158 W/m2
09:45 12.3 °C 11.4 °C 993.1 hPa WSW 8 km/h 16.1 km/h 94 % 0.51 mm 181 W/m2
09:50 12.4 °C 11.4 °C 993.5 hPa WSW 8 km/h 16.1 km/h 94 % 0.51 mm 178 W/m2
09:55 12.4 °C 11.4 °C 993.5 hPa WSW 8 km/h 16.1 km/h 94 % 0.51 mm 162 W/m2
10:00 12.4 °C 11.4 °C 993.5 hPa West 9.7 km/h 17.7 km/h 94 % 0.25 mm 105 W/m2
10:05 12.5 °C 11.4 °C 993.5 hPa West 11.3 km/h 17.7 km/h 93 % 0.25 mm 162 W/m2
10:10 12.5 °C 11.4 °C 993.5 hPa WSW 9.7 km/h 14.5 km/h 93 % 0.25 mm 199 W/m2
10:15 12.5 °C 11.4 °C 993.5 hPa WSW 9.7 km/h 16.1 km/h 93 % 0.25 mm 274 W/m2
10:20 12.6 °C 11.7 °C 993.5 hPa WSW 9.7 km/h 19.3 km/h 94 % 0.25 mm 206 W/m2
10:25 12.7 °C 11.8 °C 993.5 hPa WSW 9.7 km/h 19.3 km/h 94 % 0.25 mm 279 W/m2
10:30 12.7 °C 11.6 °C 993.5 hPa WSW 9.7 km/h 17.7 km/h 93 % 0.25 mm 230 W/m2
10:35 12.7 °C 11.6 °C 993.5 hPa WSW 8 km/h 14.5 km/h 93 % 0 mm 186 W/m2
10:40 12.8 °C 11.7 °C 993.5 hPa SW 6.4 km/h 12.9 km/h 93 % 0 mm 167 W/m2
10:45 12.9 °C 11.8 °C 993.5 hPa SW 6.4 km/h 11.3 km/h 93 % 0 mm 183 W/m2
10:50 12.9 °C 11.8 °C 993.5 hPa SW 8 km/h 11.3 km/h 93 % 0 mm 362 W/m2
10:55 13.2 °C 12.3 °C 993.5 hPa SW 6.4 km/h 11.3 km/h 94 % 0 mm 381 W/m2
11:00 13.4 °C 12.4 °C 993.5 hPa WSW 9.7 km/h 17.7 km/h 94 % 0.25 mm 633 W/m2
11:05 13.7 °C 12.6 °C 993.5 hPa West 11.3 km/h 17.7 km/h 93 % 0.25 mm 631 W/m2
11:10 14.2 °C 13.1 °C 993.5 hPa West 11.3 km/h 17.7 km/h 93 % 0.25 mm 867 W/m2
11:15 14.7 °C 13.4 °C 993.5 hPa West 9.7 km/h 16.1 km/h 92 % 0.25 mm 707 W/m2
11:20 14.9 °C 13.1 °C 993.1 hPa West 9.7 km/h 16.1 km/h 89 % 0.25 mm 206 W/m2
11:25 14.8 °C 12.7 °C 993.5 hPa West 9.7 km/h 19.3 km/h 87 % 0.25 mm 109 W/m2
11:30 14.6 °C 12.3 °C 993.5 hPa WNW 12.9 km/h 22.5 km/h 86 % 0.25 mm 192 W/m2
11:35 14.3 °C 11.8 °C 993.5 hPa WNW 14.5 km/h 24.1 km/h 85 % 0.25 mm 267 W/m2
11:40 14.3 °C 12.2 °C 993.5 hPa West 12.9 km/h 24.1 km/h 87 % 0.25 mm 309 W/m2
11:45 14.3 °C 12.2 °C 993.5 hPa West 11.3 km/h 19.3 km/h 87 % 0.25 mm 492 W/m2
11:51 14.4 °C 12.4 °C 993.5 hPa West 11.3 km/h 20.9 km/h 88 % 0.25 mm 450 W/m2
11:56 14.5 °C 12.2 °C 993.5 hPa West 12.9 km/h 24.1 km/h 86 % 0.25 mm 313 W/m2
12:01 14.5 °C 12 °C 993.5 hPa WNW 14.5 km/h 25.7 km/h 85 % 0 mm 345 W/m2
12:06 14.6 °C 11.9 °C 993.5 hPa WNW 16.1 km/h 25.7 km/h 84 % 0 mm 345 W/m2
12:11 14.8 °C 12.3 °C 993.5 hPa WNW 14.5 km/h 25.7 km/h 85 % 0 mm 606 W/m2
12:16 15.1 °C 12.4 °C 993.5 hPa WNW 12.9 km/h 22.5 km/h 84 % 0 mm 745 W/m2
12:21 15.4 °C 12.3 °C 993.5 hPa West 12.9 km/h 20.9 km/h 82 % 0 mm 229 W/m2
12:26 15.6 °C 12.2 °C 993.5 hPa West 11.3 km/h 19.3 km/h 80 % 0 mm 269 W/m2
12:31 15.7 °C 12.1 °C 993.8 hPa WNW 11.3 km/h 24.1 km/h 79 % 0 mm 881 W/m2
12:36 16 °C 12.3 °C 993.5 hPa WNW 12.9 km/h 24.1 km/h 79 % 0 mm 995 W/m2
12:41 16.3 °C 12.1 °C 993.5 hPa West 12.9 km/h 24.1 km/h 76 % 0 mm 264 W/m2
12:46 16.5 °C 12.3 °C 993.8 hPa WNW 12.9 km/h 19.3 km/h 76 % 0 mm 981 W/m2
12:51 16.6 °C 12.2 °C 993.8 hPa WNW 11.3 km/h 19.3 km/h 75 % 0 mm 271 W/m2
12:56 16.6 °C 11.9 °C 993.8 hPa WNW 12.9 km/h 20.9 km/h 74 % 0 mm 338 W/m2
13:01 16.5 °C 11.8 °C 993.8 hPa WNW 14.5 km/h 30.6 km/h 74 % 0 mm 234 W/m2
13:06 16 °C 11.6 °C 994.1 hPa WNW 17.7 km/h 32.2 km/h 75 % 0 mm 171 W/m2
13:11 15.5 °C 11.7 °C 994.5 hPa WNW 16.1 km/h 32.2 km/h 78 % 0 mm 109 W/m2
13:16 15.1 °C 11.7 °C 994.5 hPa NW 12.9 km/h 25.7 km/h 80 % 0 mm 76 W/m2
13:21 14.8 °C 11.9 °C 994.5 hPa NW 9.7 km/h 25.7 km/h 83 % 0 mm 81 W/m2
13:26 14.6 °C 12.1 °C 994.1 hPa NW 8 km/h 14.5 km/h 85 % 0 mm 102 W/m2
13:31 14.4 °C 12.1 °C 994.1 hPa NW 8 km/h 14.5 km/h 86 % 0 mm 127 W/m2
13:36 14.2 °C 12.1 °C 994.5 hPa NW 8 km/h 12.9 km/h 87 % 0 mm 142 W/m2
13:41 14.1 °C 11.9 °C 994.5 hPa NW 9.7 km/h 19.3 km/h 87 % 0 mm 142 W/m2
13:46 13.9 °C 11.8 °C 994.5 hPa NW 9.7 km/h 19.3 km/h 87 % 0 mm 146 W/m2
13:51 13.8 °C 11.7 °C 994.5 hPa NNW 8 km/h 16.1 km/h 87 % 0.25 mm 98 W/m2
13:56 13.8 °C 11.8 °C 994.8 hPa NNW 8 km/h 16.1 km/h 88 % 0.25 mm 86 W/m2
14:01 13.7 °C 11.7 °C 994.8 hPa NW 9.7 km/h 19.3 km/h 88 % 0.25 mm 102 W/m2
14:06 13.6 °C 11.7 °C 994.8 hPa NW 9.7 km/h 19.3 km/h 88 % 0.25 mm 125 W/m2
14:11 13.6 °C 12 °C 995.1 hPa NW 9.7 km/h 16.1 km/h 90 % 0.51 mm 163 W/m2
14:16 13.6 °C 12 °C 995.1 hPa NW 9.7 km/h 16.1 km/h 90 % 0.51 mm 237 W/m2
14:21 13.7 °C 12.1 °C 995.1 hPa NW 9.7 km/h 16.1 km/h 90 % 0.51 mm 262 W/m2
14:27 13.8 °C 12.3 °C 995.1 hPa NW 8 km/h 16.1 km/h 91 % 0.51 mm 283 W/m2
14:32 13.9 °C 12.3 °C 995.1 hPa WNW 9.7 km/h 16.1 km/h 90 % 0.51 mm 234 W/m2
14:37 13.9 °C 12.3 °C 995.1 hPa NW 11.3 km/h 22.5 km/h 90 % 0.51 mm 237 W/m2
14:42 14 °C 12.4 °C 995.1 hPa NW 9.7 km/h 22.5 km/h 90 % 0.51 mm 225 W/m2
14:47 14.1 °C 12.3 °C 995.1 hPa NW 8 km/h 16.1 km/h 89 % 0.51 mm 183 W/m2
14:52 14.1 °C 12.2 °C 995.1 hPa NW 9.7 km/h 16.1 km/h 88 % 0.25 mm 176 W/m2
14:57 14.1 °C 12.2 °C 995.1 hPa NW 9.7 km/h 16.1 km/h 88 % 0.25 mm 181 W/m2
15:02 14.1 °C 12.2 °C 995.1 hPa NW 8 km/h 16.1 km/h 88 % 0.25 mm 216 W/m2
15:07 14.2 °C 12.1 °C 995.1 hPa NW 9.7 km/h 16.1 km/h 87 % 0.25 mm 366 W/m2
15:12 14.4 °C 12.4 °C 995.5 hPa NW 9.7 km/h 16.1 km/h 88 % 0 mm 601 W/m2
15:17 14.7 °C 12.6 °C 995.5 hPa NW 11.3 km/h 20.9 km/h 87 % 0 mm 631 W/m2
15:22 15.1 °C 12.6 °C 995.5 hPa NW 12.9 km/h 20.9 km/h 85 % 0 mm 656 W/m2
15:27 15.4 °C 12.7 °C 995.5 hPa NW 11.3 km/h 19.3 km/h 84 % 0 mm 631 W/m2
15:32 15.8 °C 12.9 °C 995.5 hPa NW 9.7 km/h 16.1 km/h 83 % 0 mm 661 W/m2
15:37 16.2 °C 13.1 °C 995.8 hPa NW 11.3 km/h 19.3 km/h 82 % 0 mm 768 W/m2
15:42 16.4 °C 13.1 °C 995.8 hPa NW 11.3 km/h 24.1 km/h 81 % 0 mm 803 W/m2
15:47 16.6 °C 12.9 °C 995.8 hPa NW 11.3 km/h 24.1 km/h 79 % 0 mm 805 W/m2
15:52 16.7 °C 12.4 °C 995.8 hPa NNW 9.7 km/h 19.3 km/h 76 % 0 mm 420 W/m2
15:57 16.7 °C 12.4 °C 995.8 hPa NNW 9.7 km/h 19.3 km/h 76 % 0 mm 399 W/m2
16:02 16.8 °C 12.3 °C 995.8 hPa NNW 9.7 km/h 19.3 km/h 75 % 0 mm 134 W/m2
16:07 16.3 °C 12.3 °C 996.2 hPa NNW 12.9 km/h 33.8 km/h 77 % 0 mm 21 W/m2
16:12 15.3 °C 12.1 °C 996.5 hPa NNW 16.1 km/h 33.8 km/h 81 % 0.76 mm 26 W/m2
16:17 14.4 °C 11.6 °C 996.5 hPa NNW 11.3 km/h 29 km/h 83 % 0.76 mm 39 W/m2
16:22 13.9 °C 11.4 °C 996.5 hPa NNW 9.7 km/h 17.7 km/h 85 % 1.02 mm 67 W/m2
16:27 13.7 °C 11.6 °C 996.5 hPa NNW 6.4 km/h 17.7 km/h 87 % 1.02 mm 90 W/m2
16:32 13.6 °C 11.7 °C 996.5 hPa NW 6.4 km/h 12.9 km/h 88 % 1.02 mm 90 W/m2
16:37 13.6 °C 11.8 °C 996.5 hPa NW 6.4 km/h 12.9 km/h 89 % 1.02 mm 102 W/m2
16:42 13.5 °C 11.9 °C 996.5 hPa NW 4.8 km/h 11.3 km/h 90 % 1.02 mm 155 W/m2
16:47 13.5 °C 11.9 °C 996.8 hPa NW 4.8 km/h 11.3 km/h 90 % 1.02 mm 146 W/m2
16:52 13.6 °C 12 °C 996.8 hPa NW 4.8 km/h 11.3 km/h 90 % 1.02 mm 127 W/m2
16:57 13.6 °C 12.2 °C 996.8 hPa NW 6.4 km/h 11.3 km/h 91 % 1.02 mm 127 W/m2
17:02 13.8 °C 12.5 °C 996.8 hPa NW 6.4 km/h 11.3 km/h 92 % 1.02 mm 345 W/m2
17:07 14.1 °C 12.8 °C 996.8 hPa WNW 4.8 km/h 11.3 km/h 92 % 1.02 mm 327 W/m2
17:10 14.3 °C 13 °C 996.8 hPa WNW 6.4 km/h 14.5 km/h 92 % 0.25 mm 322 W/m2
17:15 14.6 °C 13.2 °C 996.8 hPa WNW 8 km/h 16.1 km/h 91 % 0.25 mm 309 W/m2
17:20 14.7 °C 12.9 °C 996.8 hPa WNW 9.7 km/h 16.1 km/h 89 % 0 mm 295 W/m2
17:25 14.9 °C 12.9 °C 996.8 hPa NW 8 km/h 17.7 km/h 88 % 0 mm 294 W/m2
17:30 15.1 °C 12.9 °C 997.2 hPa NW 8 km/h 17.7 km/h 87 % 0 mm 295 W/m2
17:35 15.2 °C 12.7 °C 997.2 hPa NW 6.4 km/h 16.1 km/h 85 % 0 mm 288 W/m2
17:40 15.4 °C 12.9 °C 997.2 hPa NW 6.4 km/h 14.5 km/h 85 % 0 mm 318 W/m2
17:45 15.5 °C 13 °C 997.2 hPa NW 6.4 km/h 14.5 km/h 85 % 0 mm 128 W/m2
17:50 15.6 °C 13.1 °C 997.2 hPa NW 8 km/h 16.1 km/h 85 % 0 mm 214 W/m2
17:55 15.6 °C 12.9 °C 997.2 hPa WNW 6.4 km/h 16.1 km/h 84 % 0 mm 137 W/m2
18:00 15.6 °C 13.1 °C 997.5 hPa WNW 4.8 km/h 12.9 km/h 85 % 0 mm 56 W/m2
18:05 15.4 °C 12.9 °C 997.5 hPa WNW 3.2 km/h 12.9 km/h 85 % 0 mm 81 W/m2
18:10 15.2 °C 12.5 °C 997.9 hPa North 1.6 km/h 12.9 km/h 84 % 0 mm 76 W/m2
18:15 15.1 °C 12.4 °C 997.9 hPa North 1.6 km/h 12.9 km/h 84 % 0 mm 77 W/m2
18:20 14.9 °C 12.2 °C 997.9 hPa North 1.6 km/h 8 km/h 84 % 0 mm 67 W/m2
18:25 14.8 °C 12.3 °C 997.9 hPa North 1.6 km/h 8 km/h 85 % 0 mm 56 W/m2
18:30 14.7 °C 12.2 °C 998.2 hPa North 3.2 km/h 16.1 km/h 85 % 0 mm 63 W/m2
18:35 14.6 °C 12.1 °C 998.2 hPa North 4.8 km/h 16.1 km/h 85 % 0 mm 53 W/m2
18:40 14.5 °C 12 °C 998.2 hPa North 8 km/h 14.5 km/h 85 % 0 mm 47 W/m2
18:45 14.4 °C 11.9 °C 998.2 hPa North 8 km/h 16.1 km/h 85 % 0 mm 33 W/m2
18:50 14.3 °C 11.8 °C 998.2 hPa North 4.8 km/h 16.1 km/h 85 % 0 mm 28 W/m2
18:55 14.2 °C 11.7 °C 998.5 hPa NNW 4.8 km/h 12.9 km/h 85 % 0 mm 30 W/m2
19:00 14.1 °C 11.6 °C 998.5 hPa NNW 4.8 km/h 12.9 km/h 85 % 0 mm 37 W/m2
19:05 13.9 °C 11.4 °C 998.5 hPa NNW 4.8 km/h 12.9 km/h 85 % 0 mm 32 W/m2
19:10 13.8 °C 11.3 °C 998.5 hPa NNW 4.8 km/h 12.9 km/h 85 % 0 mm 19 W/m2
19:15 13.8 °C 11.3 °C 998.5 hPa NNW 3.2 km/h 11.3 km/h 85 % 0 mm 14 W/m2
19:20 13.7 °C 11.1 °C 998.5 hPa NNW 1.6 km/h 9.7 km/h 84 % 0 mm 11 W/m2
19:25 13.6 °C 11.1 °C 998.9 hPa North 1.6 km/h 9.7 km/h 85 % 0 mm 9 W/m2
19:30 13.4 °C 10.9 °C 998.9 hPa Calm   6.4 km/h 85 % 0 mm 7 W/m2
19:35 13.3 °C 10.8 °C 998.9 hPa Calm   3.2 km/h 85 % 0 mm 5 W/m2
19:40 13.2 °C 10.7 °C 998.9 hPa Calm   3.2 km/h 85 % 0 mm 5 W/m2
19:45 13 °C 10.7 °C 999.2 hPa North 1.6 km/h 6.4 km/h 86 % 0 mm 0 W/m2
19:50 12.8 °C 10.5 °C 999.2 hPa NNW 3.2 km/h 6.4 km/h 86 % 0 mm 0 W/m2
19:52 12.7 °C 10.6 °C 999.2 hPa NNW 1.6 km/h 6.4 km/h 87 % 0 mm 0 W/m2
20:02 12.4 °C 10.3 °C 999.2 hPa Calm   4.8 km/h 87 % 0 mm 0 W/m2
20:07 12.3 °C 10.2 °C 999.2 hPa Calm   3.2 km/h 87 % 0 mm 0 W/m2
20:12 12.2 °C 10.3 °C 999.5 hPa Calm     88 % 0 mm 0 W/m2
20:17 12.1 °C 10.2 °C 999.5 hPa Calm     88 % 0 mm 0 W/m2
20:22 12 °C 10.2 °C 999.5 hPa Calm   3.2 km/h 89 % 0 mm 0 W/m2
20:27 11.9 °C 10.2 °C 999.5 hPa Calm   3.2 km/h 89 % 0 mm 0 W/m2
20:32 11.8 °C 10.2 °C 999.5 hPa Calm   3.2 km/h 90 % 0 mm 0 W/m2
20:37 11.7 °C 10.1 °C 999.5 hPa Calm   3.2 km/h 90 % 0 mm 0 W/m2
20:42 11.6 °C 10 °C 999.9 hPa Calm     90 % 0 mm 0 W/m2
20:47 11.4 °C 10 °C 999.9 hPa Calm   3.2 km/h 91 % 0 mm 0 W/m2
20:52 11.3 °C 9.9 °C 999.9 hPa Calm   3.2 km/h 91 % 0 mm 0 W/m2
20:57 11.2 °C 9.8 °C 999.9 hPa Calm   3.2 km/h 91 % 0 mm 0 W/m2
21:02 11.1 °C 9.7 °C 999.9 hPa Calm   3.2 km/h 91 % 0 mm 0 W/m2
21:07 10.9 °C 9.7 °C 999.9 hPa Calm   3.2 km/h 92 % 0 mm 0 W/m2
21:12 10.8 °C 9.6 °C 1000.2 hPa Calm   1.6 km/h 92 % 0 mm 0 W/m2
21:17 10.7 °C 9.4 °C 1000.2 hPa Calm   1.6 km/h 92 % 0 mm 0 W/m2
21:22 10.6 °C 9.3 °C 1000.2 hPa Calm   1.6 km/h 92 % 0 mm 0 W/m2
21:27 10.5 °C 9.3 °C 1000.2 hPa Calm   4.8 km/h 92 % 0 mm 0 W/m2
21:32 10.5 °C 9.4 °C 1000.2 hPa Calm   4.8 km/h 93 % 0 mm 0 W/m2
21:37 10.4 °C 9.3 °C 999.9 hPa Calm   1.6 km/h 93 % 0 mm 0 W/m2
21:42 10.3 °C 9.2 °C 999.9 hPa Calm     93 % 0 mm 0 W/m2
21:47 10.2 °C 9.1 °C 999.9 hPa Calm     93 % 0 mm 0 W/m2
21:52 10.1 °C 9 °C 1000.2 hPa Calm     93 % 0 mm 0 W/m2
21:57 10 °C 8.9 °C 1000.2 hPa Calm     93 % 0 mm 0 W/m2
22:02 9.9 °C 9 °C 1000.2 hPa Calm   4.8 km/h 94 % 0 mm 0 W/m2
22:07 9.9 °C 9 °C 1000.2 hPa Calm   4.8 km/h 94 % 0 mm 0 W/m2
22:12 9.8 °C 8.9 °C 1000.2 hPa Calm     94 % 0 mm 0 W/m2
22:17 9.8 °C 8.9 °C 1000.6 hPa Calm     94 % 0 mm 0 W/m2
22:22 9.7 °C 8.8 °C 1000.6 hPa Calm   4.8 km/h 94 % 0 mm 0 W/m2
22:27 9.7 °C 8.8 °C 1000.6 hPa NNW 1.6 km/h 8 km/h 94 % 0 mm 0 W/m2
22:32 9.7 °C 8.9 °C 1000.2 hPa NNW 1.6 km/h 8 km/h 95 % 0 mm 0 W/m2
22:37 9.6 °C 8.7 °C 1000.6 hPa Calm   4.8 km/h 94 % 0 mm 0 W/m2
22:42 9.5 °C 8.6 °C 1000.6 hPa Calm     94 % 0 mm 0 W/m2
22:47 9.4 °C 8.5 °C 1000.6 hPa Calm     94 % 0 mm 0 W/m2
22:52 9.3 °C 8.4 °C 1000.6 hPa Calm     94 % 0 mm 0 W/m2
22:58 9.3 °C 8.4 °C 1000.6 hPa Calm     94 % 0 mm 0 W/m2
23:03 9.2 °C 8.3 °C 1000.9 hPa Calm   4.8 km/h 94 % 0 mm 0 W/m2
23:07 9.2 °C 8.4 °C 1000.9 hPa NNW 1.6 km/h 8 km/h 95 % 0 mm 0 W/m2
23:12 9.2 °C 8.4 °C 1000.9 hPa NW 3.2 km/h 11.3 km/h 95 % 0 mm 0 W/m2
23:18 9.3 °C 8.6 °C 1000.9 hPa NW 1.6 km/h 11.3 km/h 95 % 0 mm 0 W/m2
23:23 9.4 °C 8.7 °C 1000.9 hPa WNW 1.6 km/h 8 km/h 95 % 0 mm 0 W/m2
23:28 9.3 °C 8.6 °C 1000.9 hPa WNW 1.6 km/h 8 km/h 95 % 0 mm 0 W/m2
23:33 9.3 °C 8.6 °C 1000.9 hPa Calm   3.2 km/h 95 % 0 mm 0 W/m2
23:38 9.2 °C 8.4 °C 1000.9 hPa Calm   3.2 km/h 95 % 0 mm 0 W/m2
23:42 9.1 °C 8.3 °C 1000.9 hPa Calm   3.2 km/h 95 % 0 mm 0 W/m2
23:47 9.1 °C 8.3 °C 1000.9 hPa Calm   3.2 km/h 95 % 0 mm 0 W/m2
23:52 9 °C 8.2 °C 1000.9 hPa Calm   3.2 km/h 95 % 0 mm 0 W/m2
23:57 8.9 °C 8.2 °C 1000.9 hPa Calm     95 % 0 mm 0 W/m2
Delerius-Weather
Compliments of Weather Underground - 2.25 mb

Data updates at regular intervals.